»·PEaware :: SKW4720 KLAS-KBFL

SKW4720 :: KLAS-KBFL

FLIGHT INFORMATION

Flight Status: Arrived
Operator:
SkyWest Airlines
More flights by this operator :: More flights under this callsign
Pilot: Skye D. (10623)
Aircraft: CANADAIR CL-600 CRJ-200
(CRJ2)
More flights by this aircraft type
Origin: KLAS McCarran Intl
United States
Destination: KBFL Meadows
United States
More flights between these airports :: More routes between these airports
Route: BOACH8 HEC PMD FASTO2
File this flight plan on PilotEdge
Remarks:
Altitude:
(Current/Filed)
30,000ft
Speed:
(Current/Filed)
435kts
Departed: 05-Feb-18 02:12 PM
Arrived: 05-Feb-18 03:01 PM
Distance/Time
Traveled:
194nm/0:49
Distance/Time
To Go:
Arrived

Flight Plot

Page will automatically refresh every two minutes.

Flight plan parsing failed; only flown route is shown


Map Options




Map Legend


Flown Route
Filed Route
Departure Airport
Arrival Airport
Navaid (VOR, NDB)
Fix

Horizontal Profiles

Position Reports

Time Latitude Longitude Heading Altitude Ground
Speed
05-Feb-18 13:50 36.080609 -115.140634 134 2146ft 0kts
05-Feb-18 13:51 36.080609 -115.140634 134 2146ft 0kts
05-Feb-18 13:52 36.080609 -115.140634 134 2146ft 0kts
05-Feb-18 13:53 36.080609 -115.140634 134 2146ft 0kts
05-Feb-18 13:54 36.080609 -115.140634 134 2146ft 0kts
05-Feb-18 13:55 36.080609 -115.140634 134 2146ft 0kts
05-Feb-18 13:56 36.080609 -115.140634 134 2146ft 0kts
05-Feb-18 13:57 36.080609 -115.140634 134 2146ft 0kts
05-Feb-18 13:58 36.080609 -115.140634 134 2146ft 0kts
05-Feb-18 13:59 36.080609 -115.140634 134 2146ft 0kts
05-Feb-18 14:00 36.080609 -115.140634 134 2146ft 0kts
05-Feb-18 14:01 36.080810 -115.140885 134 2146ft 2kts
05-Feb-18 14:02 36.081301 -115.141116 220 2146ft 1kts
05-Feb-18 14:03 36.081338 -115.141070 225 2146ft 0kts
05-Feb-18 14:04 36.080301 -115.141624 178 2146ft 13kts
05-Feb-18 14:06 36.079145 -115.141621 180 2146ft 0kts
05-Feb-18 14:07 36.079058 -115.141622 180 2146ft 0kts
05-Feb-18 14:08 36.079058 -115.141622 180 2146ft 0kts
05-Feb-18 14:09 36.079058 -115.141622 180 2146ft 0kts
05-Feb-18 14:10 36.079058 -115.141622 180 2146ft 0kts
05-Feb-18 14:11 36.079058 -115.141622 180 2146ft 0kts
05-Feb-18 14:12 36.079058 -115.141622 180 2146ft 0kts
05-Feb-18 14:13 36.078234 -115.139813 90 2146ft 22kts
05-Feb-18 14:14 36.078245 -115.132678 90 2146ft 24kts
05-Feb-18 14:15 36.078247 -115.124302 89 2146ft 17kts
05-Feb-18 14:16 36.077444 -115.121477 142 2146ft 0kts
05-Feb-18 14:17 36.077444 -115.121477 142 2146ft 0kts
05-Feb-18 14:18 36.076549 -115.121385 212 2146ft 12kts
05-Feb-18 14:19 36.076332 -115.148505 268 2418ft 173kts
05-Feb-18 14:20 36.076833 -115.209988 267 5155ft 203kts
05-Feb-18 14:21 36.046760 -115.272685 200 6931ft 271kts
05-Feb-18 14:22 35.971117 -115.299143 190 7424ft 293kts
05-Feb-18 14:23 35.893815 -115.310410 187 10712ft 289kts
05-Feb-18 14:24 35.805510 -115.308845 176 12319ft 348kts
05-Feb-18 14:25 35.710533 -115.298556 181 14292ft 353kts
05-Feb-18 14:26 35.631364 -115.359501 229 16424ft 345kts
05-Feb-18 14:27 35.565040 -115.446808 231 18485ft 354kts
05-Feb-18 14:28 35.499443 -115.534673 231 20379ft 360kts
05-Feb-18 14:29 35.431559 -115.625419 231 22083ft 365kts
05-Feb-18 14:30 35.363133 -115.717179 230 23576ft 366kts
05-Feb-18 14:31 35.293036 -115.810429 230 24285ft 381kts
05-Feb-18 14:32 35.220932 -115.906068 230 25498ft 388kts
05-Feb-18 14:33 35.147337 -116.003330 230 26597ft 395kts
05-Feb-18 14:34 35.072234 -116.102327 230 27590ft 402kts
05-Feb-18 14:35 34.995986 -116.202539 230 28492ft 408kts
05-Feb-18 14:36 34.918939 -116.303493 230 29237ft 415kts
05-Feb-18 14:37 34.841595 -116.404551 230 29971ft 420kts
05-Feb-18 14:38 34.792050 -116.526098 263 30016ft 407kts
05-Feb-18 14:39 34.777479 -116.661611 265 30015ft 404kts
05-Feb-18 14:40 34.765378 -116.786016 265 30017ft 404kts
05-Feb-18 14:41 34.752202 -116.917679 265 30017ft 404kts
05-Feb-18 14:42 34.738557 -117.052337 264 30018ft 410kts
05-Feb-18 14:42 34.726783 -117.167107 264 30063ft 414kts
05-Feb-18 14:44 34.710051 -117.328410 264 30062ft 419kts
05-Feb-18 14:44 34.698092 -117.442610 264 30048ft 418kts
05-Feb-18 14:46 34.684081 -117.575078 264 27746ft 405kts
05-Feb-18 14:47 34.671936 -117.690240 264 25556ft 389kts
05-Feb-18 14:47 34.661038 -117.792766 264 23271ft 378kts
05-Feb-18 14:48 34.647967 -117.912713 264 21059ft 368kts
05-Feb-18 14:49 34.635825 -118.034025 275 19060ft 357kts
05-Feb-18 14:50 34.684586 -118.131505 312 17177ft 341kts
05-Feb-18 14:51 34.748000 -118.215466 313 15458ft 334kts
05-Feb-18 14:52 34.809951 -118.296473 314 14029ft 328kts
05-Feb-18 14:53 34.871751 -118.377297 314 14019ft 325kts
05-Feb-18 14:54 34.932173 -118.456515 314 12671ft 321kts
05-Feb-18 14:55 34.989264 -118.531550 313 10763ft 316kts
05-Feb-18 14:56 35.051901 -118.591511 331 9676ft 265kts
05-Feb-18 14:57 35.105684 -118.646664 315 9024ft 246kts
05-Feb-18 14:58 35.149965 -118.702217 313 8604ft 234kts
05-Feb-18 14:59 35.192130 -118.756881 313 6372ft 230kts
05-Feb-18 15:00 35.233610 -118.813670 313 3769ft 224kts
05-Feb-18 15:01 35.275753 -118.865773 316 2968ft 205kts
05-Feb-18 15:02 35.314693 -118.912548 316 2978ft 206kts
05-Feb-18 15:03 35.354872 -118.960908 316 2615ft 206kts
05-Feb-18 15:04 35.389289 -119.002397 316 1699ft 158kts
05-Feb-18 15:05 35.415496 -119.034244 316 983ft 125kts
05-Feb-18 15:06 35.439519 -119.063018 315 511ft 66kts
05-Feb-18 15:07 35.442069 -119.063903 139 511ft 14kts
05-Feb-18 15:08 35.437774 -119.058692 133 511ft 15kts
05-Feb-18 15:09 35.437575 -119.055669 94 511ft 4kts
05-Feb-18 15:10 35.437484 -119.055139 105 511ft 0kts
05-Feb-18 15:11 35.437484 -119.055139 105 511ft 0kts
05-Feb-18 15:12 35.437484 -119.055139 105 511ft 0kts

Navigation Log

Ident Type
Flight plan parsing failed, navigation log unavailable